Time;durP1;ratioP1;P1;durP2;ratioP2;P2;SDS_P1;SDS_P2;PMS_P1;PMS_P2;Temp;Humidity;BMP_temperature;BMP_pressure;BME280_temperature;BME280_humidity;BME280_pressure;Samples;Min_cycle;Max_cycle;Signal;HPM_P1;HPM_P2
2022/02/23 00:02:48;;;;;;;4.30;1.80;;;10.60;36.30;;;;;;10363439;28;20222;-71
2022/02/23 00:07:51;;;;;;;4.53;1.80;;;10.60;35.80;;;;;;10368700;28;20237;-71
2022/02/23 00:12:54;;;;;;;3.43;1.90;;;10.60;35.80;;;;;;10364448;28;20222;-73
2022/02/23 00:17:59;;;;;;;5.47;1.70;;;10.60;35.60;;;;;;10360230;28;20227;-73
2022/02/23 00:23:02;;;;;;;4.97;1.97;;;10.60;36.00;;;;;;10356807;28;20615;-73
2022/02/23 00:28:05;;;;;;;9.57;2.60;;;10.60;35.90;;;;;;10365088;28;20250;-73
2022/02/23 00:33:10;;;;;;;5.93;2.10;;;10.60;36.00;;;;;;10367513;28;20234;-73
2022/02/23 00:38:13;;;;;;;4.20;1.70;;;10.70;36.00;;;;;;10362368;28;20226;-73
2022/02/23 00:43:16;;;;;;;5.67;1.80;;;10.70;35.90;;;;;;10362190;28;20231;-71
2022/02/23 00:48:21;;;;;;;5.83;1.67;;;10.70;35.90;;;;;;10372344;28;20237;-71
2022/02/23 00:53:26;;;;;;;7.60;2.03;;;10.70;36.00;;;;;;10375374;28;20897;-71
2022/02/23 00:58:29;;;;;;;4.53;1.63;;;10.80;36.10;;;;;;10372115;28;20749;-71
2022/02/23 01:03:34;;;;;;;4.40;1.57;;;10.80;36.00;;;;;;10369905;28;20229;-73
2022/02/23 01:08:37;;;;;;;3.73;1.73;;;10.70;36.00;;;;;;10372930;28;20230;-73
2022/02/23 01:13:40;;;;;;;4.33;1.60;;;10.80;36.20;;;;;;10375205;28;20884;-73
2022/02/23 01:18:45;;;;;;;3.50;1.70;;;10.80;36.20;;;;;;10374801;28;20741;-73
2022/02/23 01:23:48;;;;;;;3.90;1.80;;;10.80;36.40;;;;;;10371327;28;20217;-73
2022/02/23 01:28:51;;;;;;;4.30;1.97;;;10.80;36.20;;;;;;10362059;28;20612;-73
2022/02/23 01:33:56;;;;;;;3.47;1.77;;;10.80;36.20;;;;;;10367695;28;20229;-71
2022/02/23 01:38:59;;;;;;;5.83;2.00;;;10.80;36.40;;;;;;10364392;28;20218;-71
2022/02/23 01:44:02;;;;;;;8.00;2.07;;;10.80;36.40;;;;;;10372723;28;20221;-70
2022/02/23 01:49:07;;;;;;;5.47;1.80;;;10.80;36.40;;;;;;10368159;28;20759;-70
2022/02/23 01:54:10;;;;;;;4.30;1.90;;;10.80;36.70;;;;;;10369606;28;20698;-71
2022/02/23 01:59:13;;;;;;;4.50;1.90;;;10.80;36.50;;;;;;10373796;28;20229;-71
2022/02/23 02:04:21;;;;;;;5.53;2.20;;;10.80;36.70;;;;;;10368315;28;20238;-71
2022/02/23 02:09:24;;;;;;;4.77;1.70;;;10.80;37.00;;;;;;10372143;28;20229;-73
2022/02/23 02:14:27;;;;;;;5.23;1.77;;;10.80;36.90;;;;;;10369422;28;20230;-74
2022/02/23 02:19:32;;;;;;;2.90;1.87;;;10.70;36.90;;;;;;10368123;28;20226;-74
2022/02/23 02:24:39;;;;;;;4.67;1.80;;;10.70;37.50;;;;;;10373201;28;20911;-71
2022/02/23 02:29:43;;;;;;;4.83;1.77;;;10.70;38.00;;;;;;10361004;28;20230;-71
2022/02/23 02:34:48;;;;;;;3.30;1.60;;;10.60;37.70;;;;;;10369801;28;20226;-74
2022/02/23 02:39:53;;;;;;;4.07;1.60;;;10.50;37.70;;;;;;10367107;28;20722;-73
2022/02/23 02:44:58;;;;;;;4.83;1.90;;;10.50;38.30;;;;;;10367309;28;20225;-73
2022/02/23 02:50:02;;;;;;;5.10;1.70;;;10.40;38.00;;;;;;10370433;28;20230;-72
2022/02/23 02:55:08;;;;;;;4.70;2.10;;;10.40;38.20;;;;;;10366181;28;20646;-74
2022/02/23 03:00:12;;;;;;;4.50;1.70;;;10.40;38.90;;;;;;10364954;28;20231;-74
2022/02/23 03:05:15;;;;;;;5.90;1.87;;;10.40;39.30;;;;;;10368950;28;20233;-73
2022/02/23 03:10:20;;;;;;;3.10;1.30;;;10.40;39.10;;;;;;10367370;28;20231;-73
2022/02/23 03:15:23;;;;;;;2.83;1.50;;;10.30;39.90;;;;;;10364371;28;20222;-71
2022/02/23 03:20:26;;;;;;;4.40;1.53;;;10.30;39.20;;;;;;10368432;28;20232;-70
2022/02/23 03:25:30;;;;;;;1.57;1.07;;;10.30;38.90;;;;;;10365262;28;20230;-70
2022/02/23 03:30:34;;;;;;;1.53;1.10;;;10.20;39.10;;;;;;10364810;28;20234;-71
2022/02/23 03:35:37;;;;;;;2.00;1.07;;;10.30;38.40;;;;;;10370631;28;21029;-70
2022/02/23 03:40:43;;;;;;;2.57;1.30;;;10.30;38.30;;;;;;10364464;28;20237;-70
2022/02/23 03:45:46;;;;;;;1.37;1.03;;;10.30;38.60;;;;;;10364410;28;20237;-70
2022/02/23 03:50:50;;;;;;;1.20;1.00;;;10.30;38.20;;;;;;10367592;28;20233;-70
2022/02/23 03:55:54;;;;;;;2.23;1.10;;;10.40;38.00;;;;;;10362080;28;20314;-70
2022/02/23 04:00:57;;;;;;;2.20;1.00;;;10.40;38.20;;;;;;10357473;28;21339;-70
2022/02/23 04:06:01;;;;;;;1.33;0.80;;;10.40;37.80;;;;;;10364751;28;20226;-71
2022/02/23 04:11:05;;;;;;;1.07;0.77;;;10.40;37.70;;;;;;10359740;28;20590;-72
2022/02/23 04:16:08;;;;;;;2.10;0.80;;;10.30;37.70;;;;;;10373707;28;20238;-73
2022/02/23 04:21:12;;;;;;;3.07;0.90;;;10.30;37.40;;;;;;10363022;28;20221;-71
2022/02/23 04:26:18;;;;;;;1.90;0.77;;;10.30;37.40;;;;;;10369373;28;20317;-71
2022/02/23 04:31:24;;;;;;;2.33;0.90;;;10.20;37.50;;;;;;10370343;28;20319;-70
2022/02/23 04:36:27;;;;;;;2.70;0.97;;;10.20;37.30;;;;;;10369458;28;20237;-71
2022/02/23 04:41:32;;;;;;;1.67;0.90;;;10.20;37.20;;;;;;10377120;28;20264;-71
2022/02/23 04:46:35;;;;;;;1.87;1.07;;;10.20;37.20;;;;;;10375917;28;20232;-71
2022/02/23 04:51:38;;;;;;;3.03;1.20;;;10.10;37.00;;;;;;10376098;28;20229;-71
2022/02/23 04:56:43;;;;;;;7.83;4.80;;;10.10;37.00;;;;;;10355579;28;20226;-71
2022/02/23 05:01:46;;;;;;;4.47;2.13;;;10.00;37.10;;;;;;10366709;28;20230;-72
2022/02/23 05:06:49;;;;;;;1.73;1.10;;;10.00;37.00;;;;;;10365964;28;20226;-72
2022/02/23 05:11:54;;;;;;;2.90;1.30;;;9.90;38.00;;;;;;10369728;28;20226;-73
2022/02/23 05:16:57;;;;;;;1.30;0.90;;;9.80;38.10;;;;;;10366508;28;20230;-73
2022/02/23 05:22:00;;;;;;;3.03;0.93;;;9.80;38.00;;;;;;10374199;28;20228;-73
2022/02/23 05:27:06;;;;;;;2.70;0.97;;;9.70;37.90;;;;;;10365812;28;20226;-73
2022/02/23 05:32:09;;;;;;;2.83;1.10;;;9.70;38.20;;;;;;10368894;28;20231;-72
2022/02/23 05:37:13;;;;;;;2.73;1.00;;;9.70;38.00;;;;;;10370799;28;20234;-73
2022/02/23 05:42:17;;;;;;;1.40;0.70;;;9.70;37.90;;;;;;10367771;28;20301;-73
2022/02/23 05:47:20;;;;;;;5.07;1.10;;;9.60;37.90;;;;;;10360462;28;20238;-73
2022/02/23 05:52:23;;;;;;;2.17;1.07;;;9.60;37.70;;;;;;10367182;28;20230;-73
2022/02/23 05:57:28;;;;;;;2.80;1.10;;;9.60;37.80;;;;;;10368145;28;20238;-73
2022/02/23 06:02:31;;;;;;;2.00;1.40;;;9.60;37.90;;;;;;10361639;28;20234;-73
2022/02/23 06:07:35;;;;;;;2.73;1.10;;;9.60;37.50;;;;;;10365461;28;20602;-73
2022/02/23 06:12:40;;;;;;;4.10;1.47;;;9.50;37.50;;;;;;10368492;28;20313;-73
2022/02/23 06:17:43;;;;;;;3.87;2.50;;;9.50;37.70;;;;;;10360985;28;20234;-72
2022/02/23 06:22:46;;;;;;;4.00;1.70;;;9.40;37.50;;;;;;10361781;28;20234;-72
2022/02/23 06:27:50;;;;;;;3.33;1.60;;;9.30;37.50;;;;;;10363960;22;20241;-75
2022/02/23 06:32:53;;;;;;;1.93;1.60;;;9.20;37.70;;;;;;10411545;28;20237;-75
2022/02/23 06:37:58;;;;;;;3.10;1.50;;;9.10;37.70;;;;;;10403328;28;20229;-75
2022/02/23 06:43:02;;;;;;;2.17;1.27;;;9.00;37.90;;;;;;10395009;28;20226;-75
2022/02/23 06:48:06;;;;;;;3.10;2.10;;;8.90;38.10;;;;;;10390510;28;20229;-75
2022/02/23 06:53:12;;;;;;;3.87;1.90;;;8.90;38.10;;;;;;10395646;28;20229;-75
2022/02/23 06:58:17;;;;;;;4.63;1.70;;;8.90;38.10;;;;;;10393534;28;20234;-73
2022/02/23 07:03:20;;;;;;;3.87;1.50;;;8.90;38.40;;;;;;10393648;28;20227;-75
2022/02/23 07:08:23;;;;;;;2.30;1.50;;;8.80;38.10;;;;;;10387613;28;20681;-75
2022/02/23 07:13:28;;;;;;;2.77;1.40;;;8.80;38.30;;;;;;10394516;28;20225;-75
2022/02/23 07:18:31;;;;;;;6.10;1.90;;;8.80;38.60;;;;;;10397909;28;20225;-75
2022/02/23 07:23:34;;;;;;;3.23;1.33;;;8.80;38.50;;;;;;10393943;28;20406;-75
2022/02/23 07:28:39;;;;;;;2.70;1.37;;;8.80;38.60;;;;;;10391830;28;20222;-75
2022/02/23 07:33:46;;;;;;;3.30;1.33;;;8.80;38.80;;;;;;10396855;28;20228;-75
2022/02/23 07:38:51;;;;;;;2.73;1.30;;;8.80;38.70;;;;;;10393673;28;20739;-73
2022/02/23 07:43:56;;;;;;;2.27;1.43;;;8.90;39.00;;;;;;10395569;28;20229;-73
2022/02/23 07:49:00;;;;;;;2.53;1.60;;;8.90;39.20;;;;;;10399858;28;20246;-75
2022/02/23 07:54:04;;;;;;;3.23;1.60;;;8.90;39.10;;;;;;10395170;28;20295;-75
2022/02/23 07:59:09;;;;;;;3.03;1.63;;;8.90;39.20;;;;;;10397410;28;20233;-75
2022/02/23 08:04:12;;;;;;;6.17;1.50;;;8.90;40.00;;;;;;10402250;28;20229;-76
2022/02/23 08:09:15;;;;;;;1.50;1.20;;;9.00;39.70;;;;;;10398903;28;20717;-74
2022/02/23 08:14:20;;;;;;;4.87;1.63;;;9.20;39.60;;;;;;10394998;28;20784;-75
2022/02/23 08:19:32;;;;;;;5.20;1.67;;;9.30;39.80;;;;;;10395875;28;20300;-75
2022/02/23 08:24:39;;;;;;;5.13;1.87;;;9.50;39.70;;;;;;10397860;28;20230;-75
2022/02/23 08:29:45;;;;;;;6.17;2.00;;;9.70;39.70;;;;;;10393492;28;20237;-75
2022/02/23 08:34:51;;;;;;;9.00;2.03;;;9.90;39.70;;;;;;10398050;28;20749;-75
2022/02/23 08:39:54;;;;;;;5.60;1.67;;;10.10;38.40;;;;;;10400823;28;20257;-74
2022/02/23 08:44:59;;;;;;;4.07;1.73;;;10.20;38.20;;;;;;10407814;28;20291;-72
2022/02/23 08:50:02;;;;;;;7.27;1.70;;;10.40;38.50;;;;;;10400328;28;20222;-73
2022/02/23 08:55:08;;;;;;;5.90;1.73;;;10.60;38.00;;;;;;10401845;28;20388;-72
2022/02/23 09:00:14;;;;;;;4.83;1.60;;;10.80;38.00;;;;;;10398183;28;20600;-72
2022/02/23 09:05:17;;;;;;;5.07;1.87;;;10.90;38.10;;;;;;10393451;28;20225;-72
2022/02/23 09:10:21;;;;;;;5.07;2.00;;;11.00;37.60;;;;;;10394838;28;20230;-72
2022/02/23 09:15:25;;;;;;;5.53;1.60;;;11.20;37.30;;;;;;10396509;28;20324;-74
2022/02/23 09:20:29;;;;;;;5.67;1.93;;;11.30;36.40;;;;;;10393613;28;20303;-72
2022/02/23 09:25:32;;;;;;;4.33;1.60;;;11.40;36.30;;;;;;10395996;28;20232;-72
2022/02/23 09:30:37;;;;;;;8.27;2.90;;;11.50;36.40;;;;;;10393395;28;20302;-72
2022/02/23 09:35:42;;;;;;;5.17;2.00;;;11.60;36.30;;;;;;10393432;28;20253;-72
2022/02/23 09:40:48;;;;;;;5.10;2.10;;;11.60;35.90;;;;;;10393924;28;20218;-72
2022/02/23 09:45:54;;;;;;;4.57;1.70;;;11.70;34.80;;;;;;10403733;28;20246;-72
2022/02/23 09:51:00;;;;;;;5.60;1.83;;;11.70;34.90;;;;;;10395032;28;20226;-72
2022/02/23 09:56:03;;;;;;;6.80;2.27;;;11.70;35.40;;;;;;10398119;28;20279;-72
2022/02/23 10:01:08;;;;;;;6.20;2.00;;;11.80;35.90;;;;;;10397857;28;20236;-72
2022/02/23 10:06:19;;;;;;;6.60;1.90;;;11.90;35.40;;;;;;10391483;28;20277;-72
2022/02/23 10:11:22;;;;;;;4.77;1.70;;;12.00;33.90;;;;;;10403002;28;20619;-72
2022/02/23 10:16:33;;;;;;;5.00;1.93;;;12.00;35.40;;;;;;10398685;28;20313;-72
2022/02/23 10:21:55;;;;;;;3.87;1.70;;;12.10;33.60;;;;;;10398795;28;20307;-72
2022/02/23 10:27:02;;;;;;;3.40;1.47;;;12.10;33.10;;;;;;10396377;28;20225;-72
2022/02/23 10:32:12;;;;;;;3.87;1.90;;;12.10;34.30;;;;;;10400349;28;20308;-73
2022/02/23 10:37:17;;;;;;;6.27;1.63;;;12.20;34.40;;;;;;10395921;28;20714;-73
2022/02/23 10:42:24;;;;;;;7.03;1.60;;;12.40;34.10;;;;;;10397586;28;20231;-73
2022/02/23 10:47:32;;;;;;;6.17;1.90;;;12.50;33.20;;;;;;10396289;28;20225;-73
2022/02/23 10:52:36;;;;;;;5.53;1.97;;;12.50;32.50;;;;;;10393628;28;20249;-74
2022/02/23 10:57:44;;;;;;;5.30;1.80;;;12.50;33.10;;;;;;10393502;28;20498;-73
2022/02/23 11:02:50;;;;;;;3.70;1.50;;;12.50;33.40;;;;;;10393177;28;20736;-73
2022/02/23 11:07:55;;;;;;;4.03;1.50;;;12.50;34.20;;;;;;10398096;28;20698;-73
2022/02/23 11:13:00;;;;;;;6.07;1.90;;;12.70;33.80;;;;;;10403087;28;20696;-73
2022/02/23 11:18:05;;;;;;;5.23;1.77;;;12.80;33.00;;;;;;10400452;28;20229;-73
2022/02/23 11:23:09;;;;;;;4.10;1.80;;;12.90;32.70;;;;;;10397365;28;20720;-73
2022/02/23 11:28:20;;;;;;;6.77;1.70;;;12.90;32.70;;;;;;10391952;28;20682;-74
2022/02/23 11:33:58;;;;;;;3.57;1.80;;;13.00;31.80;;;;;;10401322;28;20328;-76
2022/02/23 11:39:06;;;;;;;3.37;1.60;;;13.00;32.00;;;;;;10391542;28;20694;-78
2022/02/23 11:44:14;;;;;;;3.90;2.03;;;13.10;33.00;;;;;;10391559;28;20228;-75
2022/02/23 11:49:23;;;;;;;2.93;1.70;;;13.20;32.10;;;;;;10404493;28;20311;-75
2022/02/23 11:54:51;;;;;;;3.50;1.47;;;13.40;32.10;;;;;;10396511;28;20226;-75
2022/02/23 11:59:54;;;;;;;3.90;1.77;;;13.50;30.80;;;;;;10399137;28;20229;-76
2022/02/23 12:05:00;;;;;;;3.93;1.50;;;13.50;31.90;;;;;;10396293;28;20243;-75
2022/02/23 12:10:11;;;;;;;5.60;1.70;;;13.60;30.90;;;;;;10392281;28;20618;-75
2022/02/23 12:15:26;;;;;;;2.77;1.70;;;13.70;31.00;;;;;;10386292;28;20272;-76
2022/02/23 12:20:51;;;;;;;3.70;1.60;;;13.80;31.10;;;;;;10390196;28;20865;-76
2022/02/23 12:26:11;;;;;;;3.87;1.60;;;13.80;30.60;;;;;;10391579;28;20229;-76
2022/02/23 12:31:18;;;;;;;5.20;1.70;;;13.90;31.00;;;;;;10394164;28;20233;-76
2022/02/23 12:36:37;;;;;;;4.70;1.97;;;14.00;31.20;;;;;;10387589;28;20234;-76
2022/02/23 12:41:41;;;;;;;2.63;1.50;;;14.00;29.40;;;;;;10389126;28;20226;-76
2022/02/23 12:46:46;;;;;;;4.63;1.40;;;13.90;31.10;;;;;;10393928;28;20225;-76
2022/02/23 12:51:56;;;;;;;4.00;2.20;;;13.90;31.10;;;;;;10400798;28;20599;-74
2022/02/23 12:57:01;;;;;;;4.77;2.30;;;14.00;30.50;;;;;;10408626;28;20236;-74
2022/02/23 13:02:08;;;;;;;6.13;2.00;;;14.00;30.70;;;;;;10400740;28;20222;-73
2022/02/23 13:07:16;;;;;;;5.33;1.90;;;14.00;30.00;;;;;;10401627;28;20685;-72
2022/02/23 13:12:21;;;;;;;3.23;1.27;;;14.00;29.80;;;;;;10403990;28;20225;-74
2022/02/23 13:17:24;;;;;;;4.93;1.60;;;13.90;30.30;;;;;;10400215;28;20238;-73
2022/02/23 13:22:30;;;;;;;2.93;1.60;;;14.00;30.40;;;;;;10399576;28;20230;-74
2022/02/23 13:27:33;;;;;;;3.00;1.40;;;14.00;30.00;;;;;;10403741;28;20715;-76
2022/02/23 13:32:37;;;;;;;4.93;1.77;;;14.00;30.40;;;;;;10402200;28;20230;-76
2022/02/23 13:37:45;;;;;;;3.47;1.43;;;14.10;30.00;;;;;;10396817;28;20234;-76
2022/02/23 13:42:57;;;;;;;4.63;1.80;;;14.10;29.80;;;;;;10399679;28;20236;-76
2022/02/23 13:48:02;;;;;;;2.70;1.50;;;14.10;30.00;;;;;;10402655;28;20229;-76
2022/02/23 13:53:11;;;;;;;3.40;1.53;;;14.20;29.40;;;;;;10401509;28;20293;-76
2022/02/23 13:58:17;;;;;;;5.17;2.03;;;14.20;29.40;;;;;;10395557;28;20234;-76
2022/02/23 14:03:22;;;;;;;4.00;1.70;;;14.20;28.80;;;;;;10394087;28;20233;-76
2022/02/23 14:08:35;;;;;;;4.90;1.67;;;14.10;29.10;;;;;;10402069;28;20258;-76
2022/02/23 14:13:38;;;;;;;4.57;1.70;;;14.10;28.70;;;;;;10391671;28;20225;-75
2022/02/23 14:18:48;;;;;;;2.30;1.40;;;14.10;29.70;;;;;;10389010;28;20741;-76
2022/02/23 14:24:00;;;;;;;2.93;1.37;;;14.10;28.80;;;;;;10396220;28;20625;-76
2022/02/23 14:29:06;;;;;;;3.63;1.43;;;14.10;28.80;;;;;;10395270;28;20244;-75
2022/02/23 14:34:18;;;;;;;3.93;1.20;;;14.20;29.00;;;;;;10391625;28;20221;-76
2022/02/23 14:39:24;;;;;;;2.63;1.47;;;14.10;28.20;;;;;;10390081;28;20225;-76
2022/02/23 14:44:27;;;;;;;3.87;1.77;;;14.10;28.90;;;;;;10394773;28;20234;-75
2022/02/23 14:49:30;;;;;;;3.60;1.70;;;14.10;29.00;;;;;;10400571;28;20224;-76
2022/02/23 14:54:35;;;;;;;3.27;1.43;;;14.10;29.10;;;;;;10400924;28;20222;-76
2022/02/23 14:59:38;;;;;;;5.67;1.50;;;14.00;28.70;;;;;;10399549;28;20225;-75
2022/02/23 15:04:42;;;;;;;3.53;1.57;;;14.10;29.20;;;;;;10400719;28;20596;-72
2022/02/23 15:09:47;;;;;;;4.10;1.70;;;14.10;28.90;;;;;;10395075;28;20608;-75
2022/02/23 15:14:50;;;;;;;3.50;1.47;;;14.10;29.10;;;;;;10399531;28;20224;-73
2022/02/23 15:19:54;;;;;;;3.70;1.30;;;14.20;29.00;;;;;;10392485;28;20233;-70
2022/02/23 15:24:59;;;;;;;3.00;1.40;;;14.10;29.00;;;;;;10405611;28;20245;-74
2022/02/23 15:30:04;;;;;;;4.53;1.60;;;14.10;28.50;;;;;;10392452;28;20228;-74
2022/02/23 15:35:08;;;;;;;2.13;1.40;;;14.20;29.00;;;;;;10391727;28;20218;-74
2022/02/23 15:40:13;;;;;;;4.63;1.83;;;14.20;28.50;;;;;;10395082;28;20234;-74
2022/02/23 15:45:17;;;;;;;2.50;1.20;;;14.20;28.50;;;;;;10402158;28;20230;-74
2022/02/23 15:50:20;;;;;;;3.27;1.70;;;14.20;28.90;;;;;;10396008;28;20225;-74
2022/02/23 15:55:25;;;;;;;4.00;2.27;;;14.30;28.80;;;;;;10393624;28;20229;-73
2022/02/23 16:00:29;;;;;;;2.97;1.80;;;14.30;28.40;;;;;;10392443;28;20243;-75
2022/02/23 16:05:32;;;;;;;4.53;1.87;;;14.30;28.60;;;;;;10395532;28;20229;-74
2022/02/23 16:10:37;;;;;;;3.47;2.00;;;14.20;28.50;;;;;;10391218;28;20783;-74
2022/02/23 16:15:40;;;;;;;2.87;1.93;;;14.20;28.60;;;;;;10394569;28;20226;-73
2022/02/23 16:20:44;;;;;;;4.27;1.87;;;14.20;29.00;;;;;;10392576;28;20592;-70
2022/02/23 16:25:49;;;;;;;2.77;1.93;;;14.20;28.90;;;;;;10400649;28;21041;-70
2022/02/23 16:30:53;;;;;;;2.80;1.90;;;14.20;29.90;;;;;;10404668;28;20717;-70
2022/02/23 16:35:59;;;;;;;5.67;1.97;;;14.30;30.50;;;;;;10402460;28;20241;-69
2022/02/23 16:41:03;;;;;;;3.77;1.90;;;14.50;30.70;;;;;;10400550;28;20590;-72
2022/02/23 16:46:07;;;;;;;4.83;2.17;;;14.70;29.60;;;;;;10401841;28;20230;-71
2022/02/23 16:51:10;;;;;;;4.03;2.20;;;14.80;29.60;;;;;;10408370;28;20233;-73
2022/02/23 16:56:15;;;;;;;4.13;1.70;;;14.80;29.20;;;;;;10396268;28;20245;-74
2022/02/23 17:01:18;;;;;;;1.87;1.40;;;14.70;28.80;;;;;;10395284;28;20645;-73
2022/02/23 17:06:22;;;;;;;2.37;1.67;;;14.60;28.80;;;;;;10400100;28;20666;-73
2022/02/23 17:11:26;;;;;;;4.00;1.60;;;14.40;28.50;;;;;;10402169;28;20245;-73
2022/02/23 17:16:29;;;;;;;5.27;2.00;;;14.10;28.40;;;;;;10397389;28;20229;-73
2022/02/23 17:21:33;;;;;;;4.03;2.20;;;13.80;28.60;;;;;;10400019;28;20232;-73
2022/02/23 17:26:37;;;;;;;5.07;3.70;;;13.60;28.80;;;;;;10397535;28;20232;-73
2022/02/23 17:31:40;;;;;;;5.27;4.03;;;13.40;28.50;;;;;;10396754;28;20230;-73
2022/02/23 17:36:44;;;;;;;7.17;5.17;;;13.20;28.70;;;;;;10398684;28;20234;-73
2022/02/23 17:41:49;;;;;;;8.37;5.57;;;13.00;28.90;;;;;;10392713;28;20581;-73
2022/02/23 17:46:52;;;;;;;8.53;6.97;;;12.70;28.60;;;;;;10397495;28;20391;-72
2022/02/23 17:52:20;;;;;;;6.43;5.73;;;12.50;28.80;;;;;;10394969;28;20304;-73
2022/02/23 17:57:27;;;;;;;10.13;7.00;;;12.40;29.00;;;;;;10404756;28;20229;-73
2022/02/23 18:02:31;;;;;;;6.57;5.93;;;12.20;29.00;;;;;;10410251;28;20221;-73
2022/02/23 18:07:56;;;;;;;7.90;6.73;;;12.10;29.10;;;;;;10410618;28;20240;-76
2022/02/23 18:13:01;;;;;;;6.20;5.50;;;12.00;29.20;;;;;;10408444;28;20225;-77
2022/02/23 18:18:04;;;;;;;12.57;9.50;;;11.80;29.20;;;;;;10392211;28;20234;-76
2022/02/23 18:23:07;;;;;;;12.73;9.03;;;11.70;29.40;;;;;;10399138;28;20717;-75
2022/02/23 18:28:12;;;;;;;11.80;8.93;;;11.50;29.30;;;;;;10402705;28;20235;-75
2022/02/23 18:33:16;;;;;;;8.67;6.80;;;11.40;29.30;;;;;;10397475;28;20226;-76
2022/02/23 18:38:19;;;;;;;6.47;5.13;;;11.20;29.10;;;;;;10391858;28;20229;-75
2022/02/23 18:43:24;;;;;;;8.20;6.93;;;11.10;29.10;;;;;;10390854;28;20240;-76
2022/02/23 18:48:31;;;;;;;9.67;6.87;;;11.00;29.00;;;;;;10394460;28;20243;-75
2022/02/23 18:53:35;;;;;;;12.27;8.40;;;10.90;29.00;;;;;;10395444;28;20309;-75
2022/02/23 18:58:40;;;;;;;14.57;10.20;;;10.80;29.20;;;;;;10398999;28;20233;-76
2022/02/23 19:03:43;;;;;;;11.37;9.93;;;10.70;28.90;;;;;;10391385;28;20232;-75
2022/02/23 19:08:47;;;;;;;9.87;8.10;;;10.60;29.10;;;;;;10393296;28;20229;-76
2022/02/23 19:13:52;;;;;;;12.07;9.63;;;10.40;29.20;;;;;;10395001;28;20221;-77
2022/02/23 19:18:57;;;;;;;10.07;8.70;;;10.30;29.40;;;;;;10398929;28;20660;-74
2022/02/23 19:24:01;;;;;;;11.20;9.43;;;10.20;29.40;;;;;;10396396;28;20815;-77
2022/02/23 19:29:06;;;;;;;15.50;11.93;;;10.10;29.20;;;;;;10391198;28;20753;-77
2022/02/23 19:34:10;;;;;;;12.93;9.70;;;10.00;29.30;;;;;;10392354;28;20233;-74
2022/02/23 19:39:13;;;;;;;13.87;10.73;;;9.80;30.00;;;;;;10389541;28;20225;-77
2022/02/23 19:44:19;;;;;;;11.90;9.83;;;9.70;30.30;;;;;;10389951;28;20521;-78
2022/02/23 19:49:22;;;;;;;11.47;9.57;;;9.60;30.50;;;;;;10391309;28;20363;-79
2022/02/23 19:54:28;;;;;;;11.87;8.13;;;9.50;30.40;;;;;;10388643;28;20229;-75
2022/02/23 19:59:32;;;;;;;14.20;12.23;;;9.50;30.50;;;;;;10383470;28;20229;-75
2022/02/23 20:04:35;;;;;;;13.33;11.03;;;9.40;30.50;;;;;;10379729;28;20221;-75
2022/02/23 20:09:39;;;;;;;16.37;14.60;;;9.30;30.50;;;;;;10347737;28;20225;-75
2022/02/23 20:14:43;;;;;;;18.03;15.03;;;9.30;30.50;;;;;;10376795;28;20229;-79
2022/02/23 20:19:47;;;;;;;15.97;14.27;;;9.20;30.70;;;;;;10379516;28;20284;-79
2022/02/23 20:24:50;;;;;;;16.80;14.07;;;9.10;30.50;;;;;;10383016;28;20229;-79
2022/02/23 20:29:55;;;;;;;17.23;14.33;;;9.00;30.60;;;;;;10378171;28;20241;-79
2022/02/23 20:34:58;;;;;;;16.57;14.67;;;9.00;30.50;;;;;;10381645;28;20222;-79
2022/02/23 20:40:02;;;;;;;15.13;12.60;;;8.90;30.60;;;;;;10377313;28;20225;-79
2022/02/23 20:45:08;;;;;;;12.50;11.20;;;8.80;30.60;;;;;;10382269;28;20224;-78
2022/02/23 20:50:13;;;;;;;13.80;11.73;;;8.70;30.80;;;;;;10383066;28;20237;-78
2022/02/23 20:55:17;;;;;;;12.37;10.90;;;8.70;30.60;;;;;;10374538;28;20225;-78
2022/02/23 21:00:34;;;;;;;11.10;9.97;;;8.60;30.60;;;;;;10381948;28;20356;-78
2022/02/23 21:05:41;;;;;;;10.23;8.70;;;8.50;30.80;;;;;;10383732;28;21334;-78
2022/02/23 21:10:49;;;;;;;10.73;7.77;;;8.40;30.80;;;;;;10383029;28;20234;-78
2022/02/23 21:15:55;;;;;;;8.90;6.53;;;8.30;30.70;;;;;;10383742;28;20236;-78
2022/02/23 21:20:58;;;;;;;7.80;5.93;;;8.30;31.00;;;;;;10384409;28;20526;-78
2022/02/23 21:26:02;;;;;;;6.57;5.47;;;8.20;31.00;;;;;;10388687;28;20590;-86
2022/02/23 21:31:28;;;;;;;5.60;4.70;;;8.20;31.10;;;;;;10386110;28;20797;-87
2022/02/23 21:36:35;;;;;;;8.50;5.67;;;8.20;31.40;;;;;;10388296;28;20320;-76
2022/02/23 21:41:38;;;;;;;7.07;5.00;;;8.10;31.10;;;;;;10395414;28;20221;-75
2022/02/23 21:46:44;;;;;;;6.40;4.93;;;8.00;31.10;;;;;;10377198;28;20317;-77
2022/02/23 21:51:47;;;;;;;8.47;5.07;;;8.00;31.10;;;;;;10397623;28;20853;-86
2022/02/23 21:56:50;;;;;;;6.33;4.23;;;7.90;31.00;;;;;;10395761;28;20225;-86
2022/02/23 22:01:55;;;;;;;6.17;4.63;;;7.80;31.10;;;;;;10397082;28;20226;-86
2022/02/23 22:07:00;;;;;;;5.30;4.20;;;7.60;31.20;;;;;;10397472;28;20226;-77
2022/02/23 22:12:03;;;;;;;6.27;5.43;;;7.50;31.20;;;;;;10389016;28;20589;-77
2022/02/23 22:17:08;;;;;;;6.67;4.93;;;7.50;31.30;;;;;;10389989;28;20240;-75
2022/02/23 22:22:11;;;;;;;6.50;5.50;;;7.50;31.60;;;;;;10400552;28;20225;-82
2022/02/23 22:27:15;;;;;;;7.73;6.47;;;7.50;31.50;;;;;;10393134;28;20229;-77
2022/02/23 22:38:55;;;;;;;8.47;6.13;;;7.40;31.70;;;;;;10435917;22;20233;-75
2022/02/23 22:44:07;;;;;;;8.20;6.57;;;7.40;31.60;;;;;;10440565;28;20236;-76
2022/02/23 22:49:14;;;;;;;6.10;5.10;;;7.30;31.40;;;;;;10409572;28;20247;-75
2022/02/23 22:54:20;;;;;;;9.87;6.33;;;7.20;31.20;;;;;;10400031;28;20636;-76
2022/02/23 22:59:24;;;;;;;6.97;4.67;;;7.10;31.10;;;;;;10404786;28;20696;-75
2022/02/23 23:04:27;;;;;;;6.73;4.27;;;7.00;31.10;;;;;;10398179;28;20607;-76
2022/02/23 23:09:34;;;;;;;5.73;4.10;;;6.90;31.20;;;;;;10407211;28;20230;-75
2022/02/23 23:14:37;;;;;;;4.87;3.30;;;6.70;31.60;;;;;;10406634;28;20233;-75
2022/02/23 23:19:41;;;;;;;5.63;4.00;;;6.50;31.40;;;;;;10410180;28;20229;-75
2022/02/23 23:24:46;;;;;;;7.20;4.13;;;6.40;31.60;;;;;;10408891;28;20229;-75
2022/02/23 23:29:51;;;;;;;7.40;4.30;;;6.20;31.70;;;;;;10407052;28;20236;-76
2022/02/23 23:34:56;;;;;;;4.40;3.73;;;6.00;31.80;;;;;;10399891;28;20245;-76
2022/02/23 23:40:02;;;;;;;5.83;4.37;;;6.00;32.00;;;;;;10410948;28;20230;-76
2022/02/23 23:45:07;;;;;;;6.23;4.00;;;6.00;32.50;;;;;;10409966;28;20225;-76
2022/02/23 23:50:10;;;;;;;4.93;3.90;;;6.00;32.30;;;;;;10410569;28;20775;-76
2022/02/23 23:55:17;;;;;;;4.33;3.93;;;6.00;31.80;;;;;;10402648;28;20237;-75
